createdAt,value
2022-09-10T00:01:52.673Z,14.6
2022-09-10T00:03:56.458Z,14.6
2022-09-10T00:06:00.326Z,14.7
2022-09-10T00:07:04.079Z,14.7
2022-09-10T00:09:07.772Z,14.7
2022-09-10T00:11:11.596Z,14.7
2022-09-10T00:13:15.425Z,14.7
2022-09-10T00:15:24.190Z,14.8
2022-09-10T00:17:27.970Z,14.8
2022-09-10T00:23:39.466Z,14.8
2022-09-10T00:25:43.321Z,14.8
2022-09-10T00:27:47.163Z,14.8
2022-09-10T00:29:54.287Z,14.8
2022-09-10T00:31:58.109Z,14.8
2022-09-10T00:34:01.934Z,14.8
2022-09-10T00:36:05.762Z,14.7
2022-09-10T00:38:09.638Z,14.8
2022-09-10T00:40:13.456Z,14.7
2022-09-10T00:42:17.310Z,14.7
2022-09-10T00:44:24.415Z,14.7
2022-09-10T00:46:28.244Z,14.7
2022-09-10T00:52:40.100Z,14.7
2022-09-10T00:54:43.667Z,14.7
2022-09-10T00:56:47.522Z,14.7
2022-09-10T00:58:54.581Z,14.7
2022-09-10T01:00:58.546Z,14.7
2022-09-10T01:03:02.301Z,14.7
2022-09-10T01:04:05.831Z,14.6
2022-09-10T01:06:09.684Z,14.7
2022-09-10T01:08:13.523Z,14.6
2022-09-10T01:10:17.373Z,14.7
2022-09-10T01:12:24.492Z,14.7
2022-09-10T01:14:28.314Z,14.6
2022-09-10T01:16:32.219Z,14.7
2022-09-10T01:18:35.977Z,14.6
2022-09-10T01:20:39.847Z,14.6
2022-09-10T01:22:43.694Z,14.7
2022-09-10T01:24:47.551Z,14.6
2022-09-10T01:26:54.664Z,14.6
2022-09-10T01:28:58.491Z,14.6
2022-09-10T01:33:06.192Z,14.6
2022-09-10T01:35:10.042Z,14.6
2022-09-10T01:41:24.830Z,14.7
2022-09-10T01:43:28.679Z,14.7
2022-09-10T01:45:32.570Z,14.8
2022-09-10T01:47:36.346Z,14.8
2022-09-10T01:49:40.161Z,14.8
2022-09-10T01:53:47.897Z,14.8
2022-09-10T01:55:54.980Z,14.8
2022-09-10T01:57:58.807Z,14.8
2022-09-10T02:00:02.636Z,14.9
2022-09-10T02:02:27.539Z,14.9
2022-09-10T02:06:35.232Z,14.9
2022-09-10T02:08:42.358Z,14.9
2022-09-10T02:10:46.211Z,14.9
2022-09-10T02:14:53.843Z,14.9
2022-09-10T02:19:01.524Z,15
2022-09-10T02:21:05.343Z,15
2022-09-10T02:23:12.462Z,15
2022-09-10T02:29:23.968Z,15
2022-09-10T02:31:27.884Z,15
2022-09-10T02:35:35.488Z,15
2022-09-10T02:37:42.577Z,15.1
2022-09-10T02:39:46.454Z,15.1
2022-09-10T02:41:50.257Z,15.1
2022-09-10T02:43:54.069Z,15
2022-09-10T02:45:57.957Z,15
2022-09-10T02:48:01.764Z,15
2022-09-10T02:50:06.259Z,15
2022-09-10T02:52:12.680Z,15.1
2022-09-10T02:54:16.503Z,15
2022-09-10T02:56:20.335Z,15
2022-09-10T02:57:23.901Z,15.1
2022-09-10T03:03:35.413Z,15.1
2022-09-10T03:05:42.510Z,15.1
2022-09-10T03:07:46.322Z,15
2022-09-10T03:09:50.141Z,15
2022-09-10T03:13:57.801Z,15
2022-09-10T03:16:01.654Z,15
2022-09-10T03:18:05.489Z,15
2022-09-10T03:20:12.632Z,15
2022-09-10T03:22:16.406Z,15
2022-09-10T03:24:20.266Z,15
2022-09-10T03:26:24.086Z,15
2022-09-10T03:28:27.939Z,15
2022-09-10T03:30:31.869Z,15
2022-09-10T03:32:35.606Z,15.1
2022-09-10T03:34:42.719Z,15.1
2022-09-10T03:36:46.539Z,15.1
2022-09-10T03:38:50.386Z,15
2022-09-10T03:45:05.368Z,15
2022-09-10T03:47:05.688Z,15
2022-09-10T03:49:12.778Z,15.1
2022-09-10T03:51:16.607Z,15.1
2022-09-10T03:53:20.465Z,15.1
2022-09-10T03:54:24.023Z,15
2022-09-10T03:58:31.690Z,15
2022-09-10T04:00:35.518Z,15.1
2022-09-10T04:02:42.663Z,15.1
2022-09-10T04:04:46.482Z,15.1
2022-09-10T04:06:50.303Z,15
2022-09-10T04:08:54.157Z,15.1
2022-09-10T04:10:57.940Z,15.1
2022-09-10T04:15:05.653Z,15.1
2022-09-10T04:17:12.772Z,15.1
2022-09-10T04:19:16.588Z,15.1
2022-09-10T04:21:20.400Z,15.1
2022-09-10T04:23:24.238Z,15.1
2022-09-10T04:25:28.030Z,15.1
2022-09-10T04:29:35.708Z,15.1
2022-09-10T04:33:46.643Z,15.1
2022-09-10T04:35:50.491Z,15.1
2022-09-10T04:37:54.347Z,15.1
2022-09-10T04:44:05.901Z,15.1
2022-09-10T04:48:16.799Z,15.1
2022-09-10T04:50:20.651Z,15.1
2022-09-10T04:51:24.163Z,15.1
2022-09-10T04:53:28.007Z,15.1
2022-09-10T04:55:31.864Z,15.1
2022-09-10T04:57:35.697Z,15.1
2022-09-10T05:01:46.668Z,15.1
2022-09-10T05:05:54.318Z,15.1
2022-09-10T05:07:58.171Z,15.1
2022-09-10T05:10:02.003Z,15.1
2022-09-10T05:12:05.835Z,15.1
2022-09-10T05:14:12.927Z,15.1
2022-09-10T05:16:16.789Z,15.1
2022-09-10T05:18:20.624Z,15.1
2022-09-10T05:20:24.436Z,15.1
2022-09-10T05:22:34.942Z,15.1
2022-09-10T05:24:32.095Z,15.1
2022-09-10T05:26:35.949Z,15.1
2022-09-10T05:28:43.072Z,15.1
2022-09-10T05:30:51.355Z,15
2022-09-10T05:32:50.772Z,15.1
2022-09-10T05:34:54.573Z,15.1
2022-09-10T05:36:58.419Z,15.1
2022-09-10T18:19:19.152Z,18.1
2022-09-10T18:21:22.996Z,18
2022-09-10T18:23:26.850Z,18
2022-09-10T18:25:51.590Z,17.9
2022-09-10T18:27:55.402Z,17.9
2022-09-10T18:29:59.230Z,17.9
2022-09-10T18:32:06.307Z,17.9
2022-09-10T18:34:10.116Z,17.8
2022-09-10T18:36:13.942Z,17.8
2022-09-10T18:38:17.767Z,17.8
2022-09-10T18:40:21.598Z,17.8
2022-09-10T18:42:25.407Z,17.7
2022-09-10T18:44:29.230Z,17.7
2022-09-10T18:46:36.408Z,17.7
2022-09-10T18:48:40.174Z,17.6
2022-09-10T18:50:43.958Z,17.6
2022-09-10T18:52:47.816Z,17.6
2022-09-10T18:56:55.414Z,17.5
2022-09-10T18:58:59.260Z,17.5
2022-09-10T19:01:06.313Z,17.5
2022-09-10T19:03:10.121Z,17.4
2022-09-10T19:05:13.953Z,17.4
2022-09-10T19:07:17.749Z,17.4
2022-09-10T19:09:21.591Z,17.4
2022-09-10T19:11:25.387Z,17.3
2022-09-10T19:13:29.200Z,17.3
2022-09-10T19:15:36.424Z,17.3
2022-09-10T19:17:40.125Z,17.3
2022-09-10T19:19:43.948Z,17.2
2022-09-10T19:20:47.514Z,17.2
2022-09-10T19:22:51.316Z,17.2
2022-09-10T19:24:55.991Z,17.1
2022-09-10T19:31:09.966Z,17.1
2022-09-10T19:33:13.715Z,17.1
2022-09-10T19:35:17.568Z,17.1
2022-09-10T19:37:21.393Z,17.1
2022-09-10T19:39:25.225Z,17
2022-09-10T19:41:29.134Z,17
2022-09-10T19:43:36.159Z,17
2022-09-10T19:45:39.977Z,17
2022-09-10T19:47:43.803Z,17
2022-09-10T19:49:47.627Z,17
2022-09-10T19:51:52.640Z,17
2022-09-10T19:53:55.255Z,17
2022-09-10T19:55:59.087Z,17
2022-09-10T19:58:06.168Z,17
2022-09-10T20:00:20.634Z,17
2022-09-10T20:02:13.982Z,16.9
2022-09-10T20:04:17.630Z,16.9
2022-09-10T20:06:21.446Z,16.9
2022-09-10T20:08:25.289Z,16.8
2022-09-10T20:10:29.115Z,16.8
2022-09-10T20:12:36.214Z,16.7
2022-09-10T20:16:43.857Z,16.7
2022-09-10T20:21:55.044Z,16.6
2022-09-10T20:23:58.870Z,16.6
2022-09-10T20:26:05.990Z,16.5
2022-09-10T20:28:09.824Z,16.5
2022-09-10T20:30:13.648Z,16.5
2022-09-10T20:32:17.529Z,16.5
2022-09-10T20:36:25.160Z,16.5
2022-09-10T20:38:28.978Z,16.5
2022-09-10T20:40:36.121Z,16.4
2022-09-10T20:42:39.930Z,16.4
2022-09-10T20:44:43.760Z,16.4
2022-09-10T20:46:47.594Z,16.3
2022-09-10T20:48:51.395Z,16.3
2022-09-10T20:50:55.249Z,16.3
2022-09-10T20:52:59.077Z,16.2
2022-09-10T20:55:06.199Z,16.2
2022-09-10T21:01:17.760Z,16.1
2022-09-10T21:05:25.354Z,16.1
2022-09-10T21:07:29.199Z,16
2022-09-10T21:09:36.326Z,16
2022-09-10T21:13:43.974Z,15.9
2022-09-10T21:18:55.201Z,15.9
2022-09-10T21:27:13.780Z,15.8
2022-09-10T21:29:17.630Z,15.8
2022-09-10T21:31:21.479Z,15.7
2022-09-10T21:33:25.310Z,15.7
2022-09-10T21:35:29.146Z,15.7
2022-09-10T21:37:36.259Z,15.7
2022-09-10T21:43:47.742Z,15.7
2022-09-10T21:45:51.569Z,15.6
2022-09-10T21:47:55.392Z,15.6
2022-09-10T21:49:59.219Z,15.5
2022-09-10T21:52:06.352Z,15.5
2022-09-10T21:56:13.979Z,15.5
2022-09-10T21:58:17.800Z,15.4
2022-09-10T22:00:21.652Z,15.4
2022-09-10T22:02:25.607Z,15.3
2022-09-10T22:04:29.296Z,15.3
2022-09-10T22:08:40.313Z,15.3
2022-09-10T22:10:44.065Z,15.3
2022-09-10T22:15:06.462Z,15.3
2022-09-10T22:17:10.293Z,15.2
2022-09-10T22:19:17.370Z,15.2
2022-09-10T22:21:21.215Z,15.2
2022-09-10T22:23:25.030Z,15.1
2022-09-10T22:25:28.853Z,15.1
2022-09-10T22:27:32.701Z,15
2022-09-10T22:29:36.517Z,15
2022-09-10T22:33:47.483Z,15
2022-09-10T22:35:51.312Z,15
2022-09-10T22:37:55.164Z,14.9
2022-09-10T22:46:10.522Z,14.8
2022-09-10T22:52:25.239Z,14.7
2022-09-10T23:00:40.654Z,14.7
2022-09-10T23:07:58.979Z,14.7
2022-09-10T23:10:02.884Z,14.7
2022-09-10T23:12:06.666Z,14.7
2022-09-10T23:16:17.693Z,14.6
2022-09-10T23:18:21.528Z,14.6
2022-09-10T23:20:25.308Z,14.6
2022-09-10T23:22:29.135Z,14.6
2022-09-10T23:24:32.994Z,14.6
2022-09-10T23:26:36.856Z,14.6
2022-09-10T23:28:40.870Z,14.6
2022-09-10T23:30:47.805Z,14.6
2022-09-10T23:32:51.652Z,14.6
2022-09-10T23:39:03.183Z,14.6
2022-09-10T23:49:25.682Z,14.6
2022-09-10T23:51:29.510Z,14.6
2022-09-10T23:53:33.479Z,14.6
2022-09-10T23:55:37.182Z,14.6
2022-09-10T23:57:41.016Z,14.6
2022-09-10T23:59:48.144Z,14.6
